sensor_id;sensor_type;location;lat;lon;timestamp;P1;durP1;ratioP1;P2;durP2;ratioP2
15287;SDS011;7745;48.708;9.026;2023-05-10T00:00:29;1.53;;;0.70;;
15287;SDS011;7745;48.708;9.026;2023-05-10T00:02:56;1.77;;;0.70;;
15287;SDS011;7745;48.708;9.026;2023-05-10T00:05:23;1.27;;;0.80;;
15287;SDS011;7745;48.708;9.026;2023-05-10T00:07:49;0.30;;;0.27;;
15287;SDS011;7745;48.708;9.026;2023-05-10T00:10:16;0.30;;;0.30;;
15287;SDS011;7745;48.708;9.026;2023-05-10T00:12:44;1.10;;;0.30;;
15287;SDS011;7745;48.708;9.026;2023-05-10T00:15:11;1.57;;;0.30;;
15287;SDS011;7745;48.708;9.026;2023-05-10T00:17:38;0.83;;;0.30;;
15287;SDS011;7745;48.708;9.026;2023-05-10T00:20:05;1.63;;;0.17;;
15287;SDS011;7745;48.708;9.026;2023-05-10T00:22:33;6.23;;;0.40;;
15287;SDS011;7745;48.708;9.026;2023-05-10T00:25:00;0.53;;;0.20;;
15287;SDS011;7745;48.708;9.026;2023-05-10T00:27:27;0.27;;;0.17;;
15287;SDS011;7745;48.708;9.026;2023-05-10T00:29:55;3.33;;;0.20;;
15287;SDS011;7745;48.708;9.026;2023-05-10T00:32:22;1.10;;;0.17;;
15287;SDS011;7745;48.708;9.026;2023-05-10T00:34:48;1.60;;;0.10;;
15287;SDS011;7745;48.708;9.026;2023-05-10T00:37:15;1.10;;;0.20;;
15287;SDS011;7745;48.708;9.026;2023-05-10T00:39:42;0.87;;;0.13;;
15287;SDS011;7745;48.708;9.026;2023-05-10T00:42:09;0.70;;;0.30;;
15287;SDS011;7745;48.708;9.026;2023-05-10T00:44:36;0.80;;;0.10;;
15287;SDS011;7745;48.708;9.026;2023-05-10T00:47:04;2.50;;;0.20;;
15287;SDS011;7745;48.708;9.026;2023-05-10T00:49:31;0.23;;;0.20;;
15287;SDS011;7745;48.708;9.026;2023-05-10T00:51:58;0.60;;;0.30;;
15287;SDS011;7745;48.708;9.026;2023-05-10T00:54:26;1.37;;;0.20;;
15287;SDS011;7745;48.708;9.026;2023-05-10T00:56:53;0.10;;;0.10;;
15287;SDS011;7745;48.708;9.026;2023-05-10T00:59:22;1.23;;;0.20;;
15287;SDS011;7745;48.708;9.026;2023-05-10T01:01:49;0.23;;;0.20;;
15287;SDS011;7745;48.708;9.026;2023-05-10T01:04:17;2.10;;;0.23;;
15287;SDS011;7745;48.708;9.026;2023-05-10T01:06:50;0.87;;;0.20;;
15287;SDS011;7745;48.708;9.026;2023-05-10T01:09:17;0.27;;;0.20;;
15287;SDS011;7745;48.708;9.026;2023-05-10T01:11:44;0.40;;;0.20;;
15287;SDS011;7745;48.708;9.026;2023-05-10T01:14:12;0.47;;;0.30;;
15287;SDS011;7745;48.708;9.026;2023-05-10T01:16:39;0.60;;;0.20;;
15287;SDS011;7745;48.708;9.026;2023-05-10T01:19:09;0.33;;;0.20;;
15287;SDS011;7745;48.708;9.026;2023-05-10T01:21:45;0.57;;;0.30;;
15287;SDS011;7745;48.708;9.026;2023-05-10T01:24:24;0.27;;;0.20;;
15287;SDS011;7745;48.708;9.026;2023-05-10T01:27:22;2.30;;;0.40;;
15287;SDS011;7745;48.708;9.026;2023-05-10T01:30:14;0.47;;;0.30;;
15287;SDS011;7745;48.708;9.026;2023-05-10T01:33:09;0.60;;;0.20;;
15287;SDS011;7745;48.708;9.026;2023-05-10T01:35:42;0.67;;;0.20;;
15287;SDS011;7745;48.708;9.026;2023-05-10T01:38:15;0.23;;;0.20;;
15287;SDS011;7745;48.708;9.026;2023-05-10T01:40:48;0.53;;;0.20;;
15287;SDS011;7745;48.708;9.026;2023-05-10T01:43:28;0.60;;;0.23;;
15287;SDS011;7745;48.708;9.026;2023-05-10T01:45:59;0.20;;;0.20;;
15287;SDS011;7745;48.708;9.026;2023-05-10T01:48:36;0.60;;;0.20;;
15287;SDS011;7745;48.708;9.026;2023-05-10T01:51:05;0.90;;;0.20;;
15287;SDS011;7745;48.708;9.026;2023-05-10T01:53:33;0.20;;;0.10;;
15287;SDS011;7745;48.708;9.026;2023-05-10T01:56:03;0.40;;;0.27;;
15287;SDS011;7745;48.708;9.026;2023-05-10T01:58:31;1.20;;;0.20;;
15287;SDS011;7745;48.708;9.026;2023-05-10T02:01:01;1.47;;;0.20;;
15287;SDS011;7745;48.708;9.026;2023-05-10T02:03:30;1.80;;;0.30;;
15287;SDS011;7745;48.708;9.026;2023-05-10T02:06:01;0.27;;;0.20;;
15287;SDS011;7745;48.708;9.026;2023-05-10T02:08:30;0.53;;;0.20;;
15287;SDS011;7745;48.708;9.026;2023-05-10T02:11:01;2.33;;;0.20;;
15287;SDS011;7745;48.708;9.026;2023-05-10T02:13:30;2.47;;;0.30;;
15287;SDS011;7745;48.708;9.026;2023-05-10T02:15:59;1.63;;;0.20;;
15287;SDS011;7745;48.708;9.026;2023-05-10T02:18:29;0.20;;;0.20;;
15287;SDS011;7745;48.708;9.026;2023-05-10T02:20:57;0.30;;;0.30;;
15287;SDS011;7745;48.708;9.026;2023-05-10T02:23:26;1.13;;;0.50;;
15287;SDS011;7745;48.708;9.026;2023-05-10T02:25:54;0.40;;;0.40;;
15287;SDS011;7745;48.708;9.026;2023-05-10T02:28:22;0.60;;;0.50;;
15287;SDS011;7745;48.708;9.026;2023-05-10T02:30:51;1.07;;;0.60;;
15287;SDS011;7745;48.708;9.026;2023-05-10T02:33:19;0.90;;;0.70;;
15287;SDS011;7745;48.708;9.026;2023-05-10T02:35:47;1.10;;;1.00;;
15287;SDS011;7745;48.708;9.026;2023-05-10T02:38:14;1.07;;;0.50;;
15287;SDS011;7745;48.708;9.026;2023-05-10T02:40:44;0.90;;;0.80;;
15287;SDS011;7745;48.708;9.026;2023-05-10T02:43:14;3.60;;;0.80;;
15287;SDS011;7745;48.708;9.026;2023-05-10T02:45:43;1.03;;;0.70;;
15287;SDS011;7745;48.708;9.026;2023-05-10T02:48:12;1.63;;;0.73;;
15287;SDS011;7745;48.708;9.026;2023-05-10T02:50:39;2.20;;;0.70;;
15287;SDS011;7745;48.708;9.026;2023-05-10T02:53:10;2.67;;;0.67;;
15287;SDS011;7745;48.708;9.026;2023-05-10T02:55:41;3.23;;;0.90;;
15287;SDS011;7745;48.708;9.026;2023-05-10T02:58:15;1.70;;;0.70;;
15287;SDS011;7745;48.708;9.026;2023-05-10T03:00:44;3.87;;;0.80;;
15287;SDS011;7745;48.708;9.026;2023-05-10T03:03:12;1.87;;;0.90;;
15287;SDS011;7745;48.708;9.026;2023-05-10T03:05:39;1.60;;;1.03;;
15287;SDS011;7745;48.708;9.026;2023-05-10T03:08:05;2.93;;;1.17;;
15287;SDS011;7745;48.708;9.026;2023-05-10T03:10:32;1.20;;;1.10;;
15287;SDS011;7745;48.708;9.026;2023-05-10T03:13:10;1.43;;;0.90;;
15287;SDS011;7745;48.708;9.026;2023-05-10T03:15:45;1.40;;;0.70;;
15287;SDS011;7745;48.708;9.026;2023-05-10T03:18:21;1.50;;;0.80;;
15287;SDS011;7745;48.708;9.026;2023-05-10T03:20:49;0.80;;;0.50;;
15287;SDS011;7745;48.708;9.026;2023-05-10T03:23:25;0.90;;;0.73;;
15287;SDS011;7745;48.708;9.026;2023-05-10T03:25:56;2.10;;;0.90;;
15287;SDS011;7745;48.708;9.026;2023-05-10T03:28:25;0.73;;;0.60;;
15287;SDS011;7745;48.708;9.026;2023-05-10T03:30:53;0.67;;;0.67;;
15287;SDS011;7745;48.708;9.026;2023-05-10T03:33:20;0.53;;;0.53;;
15287;SDS011;7745;48.708;9.026;2023-05-10T03:35:47;1.27;;;0.87;;
15287;SDS011;7745;48.708;9.026;2023-05-10T03:38:14;1.97;;;0.80;;
15287;SDS011;7745;48.708;9.026;2023-05-10T03:40:40;0.87;;;0.60;;
15287;SDS011;7745;48.708;9.026;2023-05-10T03:43:07;1.20;;;0.70;;
15287;SDS011;7745;48.708;9.026;2023-05-10T03:45:35;1.37;;;0.70;;
15287;SDS011;7745;48.708;9.026;2023-05-10T03:48:02;1.60;;;0.80;;
15287;SDS011;7745;48.708;9.026;2023-05-10T03:50:30;1.70;;;0.80;;
15287;SDS011;7745;48.708;9.026;2023-05-10T03:52:56;2.97;;;1.00;;
15287;SDS011;7745;48.708;9.026;2023-05-10T03:55:23;1.73;;;0.90;;
15287;SDS011;7745;48.708;9.026;2023-05-10T03:57:50;1.03;;;0.93;;
15287;SDS011;7745;48.708;9.026;2023-05-10T04:00:18;0.97;;;0.93;;
15287;SDS011;7745;48.708;9.026;2023-05-10T04:02:47;1.60;;;0.90;;
15287;SDS011;7745;48.708;9.026;2023-05-10T04:05:14;3.30;;;1.10;;
15287;SDS011;7745;48.708;9.026;2023-05-10T04:07:40;1.70;;;1.13;;
15287;SDS011;7745;48.708;9.026;2023-05-10T04:10:09;1.80;;;1.00;;
15287;SDS011;7745;48.708;9.026;2023-05-10T04:12:36;2.60;;;1.00;;
15287;SDS011;7745;48.708;9.026;2023-05-10T04:15:03;4.63;;;1.10;;
15287;SDS011;7745;48.708;9.026;2023-05-10T04:17:31;1.53;;;1.30;;
15287;SDS011;7745;48.708;9.026;2023-05-10T04:20:00;3.70;;;1.13;;
15287;SDS011;7745;48.708;9.026;2023-05-10T04:22:26;3.77;;;1.10;;
15287;SDS011;7745;48.708;9.026;2023-05-10T04:24:54;1.50;;;1.10;;
15287;SDS011;7745;48.708;9.026;2023-05-10T04:27:20;2.47;;;1.10;;
15287;SDS011;7745;48.708;9.026;2023-05-10T04:29:47;3.50;;;1.40;;
15287;SDS011;7745;48.708;9.026;2023-05-10T04:32:15;2.90;;;1.20;;
15287;SDS011;7745;48.708;9.026;2023-05-10T04:34:42;2.80;;;1.13;;
15287;SDS011;7745;48.708;9.026;2023-05-10T04:37:10;2.97;;;1.40;;
15287;SDS011;7745;48.708;9.026;2023-05-10T04:39:37;1.93;;;1.53;;
15287;SDS011;7745;48.708;9.026;2023-05-10T04:42:04;1.93;;;1.27;;
15287;SDS011;7745;48.708;9.026;2023-05-10T04:44:31;3.93;;;1.30;;
15287;SDS011;7745;48.708;9.026;2023-05-10T04:46:58;1.97;;;1.37;;
15287;SDS011;7745;48.708;9.026;2023-05-10T04:49:26;1.83;;;1.43;;
15287;SDS011;7745;48.708;9.026;2023-05-10T04:51:52;3.10;;;1.43;;
15287;SDS011;7745;48.708;9.026;2023-05-10T04:54:20;2.23;;;1.43;;
15287;SDS011;7745;48.708;9.026;2023-05-10T04:56:47;2.47;;;1.20;;
15287;SDS011;7745;48.708;9.026;2023-05-10T04:59:14;6.57;;;1.57;;
15287;SDS011;7745;48.708;9.026;2023-05-10T05:01:41;1.90;;;1.53;;
15287;SDS011;7745;48.708;9.026;2023-05-10T05:04:08;3.30;;;1.30;;
15287;SDS011;7745;48.708;9.026;2023-05-10T05:06:35;3.70;;;1.40;;
15287;SDS011;7745;48.708;9.026;2023-05-10T05:09:01;3.20;;;1.57;;
15287;SDS011;7745;48.708;9.026;2023-05-10T05:11:30;3.57;;;1.60;;
15287;SDS011;7745;48.708;9.026;2023-05-10T05:13:56;1.63;;;1.40;;
15287;SDS011;7745;48.708;9.026;2023-05-10T05:16:24;2.80;;;1.50;;
15287;SDS011;7745;48.708;9.026;2023-05-10T05:18:51;2.27;;;1.77;;
15287;SDS011;7745;48.708;9.026;2023-05-10T05:21:18;4.57;;;1.80;;
15287;SDS011;7745;48.708;9.026;2023-05-10T05:23:47;3.60;;;1.77;;
15287;SDS011;7745;48.708;9.026;2023-05-10T05:26:13;2.73;;;1.53;;
15287;SDS011;7745;48.708;9.026;2023-05-10T05:28:42;4.13;;;1.63;;
15287;SDS011;7745;48.708;9.026;2023-05-10T05:31:09;2.17;;;1.67;;
15287;SDS011;7745;48.708;9.026;2023-05-10T05:33:36;3.13;;;1.77;;
15287;SDS011;7745;48.708;9.026;2023-05-10T05:36:04;1.90;;;1.60;;
15287;SDS011;7745;48.708;9.026;2023-05-10T05:38:31;2.50;;;1.67;;
15287;SDS011;7745;48.708;9.026;2023-05-10T05:40:58;2.63;;;1.80;;
15287;SDS011;7745;48.708;9.026;2023-05-10T05:43:25;2.97;;;1.80;;
15287;SDS011;7745;48.708;9.026;2023-05-10T05:46:00;1.50;;;1.40;;
15287;SDS011;7745;48.708;9.026;2023-05-10T05:48:29;3.43;;;1.60;;
15287;SDS011;7745;48.708;9.026;2023-05-10T05:50:56;3.00;;;1.43;;
15287;SDS011;7745;48.708;9.026;2023-05-10T05:53:23;2.40;;;1.57;;
15287;SDS011;7745;48.708;9.026;2023-05-10T05:55:53;2.00;;;1.57;;
15287;SDS011;7745;48.708;9.026;2023-05-10T05:58:20;3.47;;;1.40;;
15287;SDS011;7745;48.708;9.026;2023-05-10T06:00:47;2.40;;;1.50;;
15287;SDS011;7745;48.708;9.026;2023-05-10T06:03:17;3.40;;;1.50;;
15287;SDS011;7745;48.708;9.026;2023-05-10T06:05:43;2.20;;;1.50;;
15287;SDS011;7745;48.708;9.026;2023-05-10T06:08:10;1.43;;;1.33;;
15287;SDS011;7745;48.708;9.026;2023-05-10T06:10:37;5.90;;;5.33;;
15287;SDS011;7745;48.708;9.026;2023-05-10T06:13:04;1.70;;;1.60;;
15287;SDS011;7745;48.708;9.026;2023-05-10T06:15:31;3.07;;;1.20;;
15287;SDS011;7745;48.708;9.026;2023-05-10T06:17:58;3.10;;;1.40;;
15287;SDS011;7745;48.708;9.026;2023-05-10T06:20:26;4.47;;;1.50;;
15287;SDS011;7745;48.708;9.026;2023-05-10T06:22:53;3.37;;;1.53;;
15287;SDS011;7745;48.708;9.026;2023-05-10T06:25:20;2.03;;;1.60;;
15287;SDS011;7745;48.708;9.026;2023-05-10T06:27:46;1.90;;;1.70;;
15287;SDS011;7745;48.708;9.026;2023-05-10T06:30:13;3.87;;;1.90;;
15287;SDS011;7745;48.708;9.026;2023-05-10T06:32:40;2.33;;;1.87;;
15287;SDS011;7745;48.708;9.026;2023-05-10T06:35:08;2.30;;;1.57;;
15287;SDS011;7745;48.708;9.026;2023-05-10T06:37:37;2.77;;;1.53;;
15287;SDS011;7745;48.708;9.026;2023-05-10T06:40:05;1.83;;;1.50;;
15287;SDS011;7745;48.708;9.026;2023-05-10T06:42:32;2.93;;;1.73;;
15287;SDS011;7745;48.708;9.026;2023-05-10T06:44:59;1.70;;;1.60;;
15287;SDS011;7745;48.708;9.026;2023-05-10T06:47:26;3.40;;;1.93;;
15287;SDS011;7745;48.708;9.026;2023-05-10T06:49:53;3.03;;;1.90;;
15287;SDS011;7745;48.708;9.026;2023-05-10T06:52:20;3.37;;;1.67;;
15287;SDS011;7745;48.708;9.026;2023-05-10T06:54:48;3.60;;;1.40;;
15287;SDS011;7745;48.708;9.026;2023-05-10T06:57:15;2.60;;;1.47;;
15287;SDS011;7745;48.708;9.026;2023-05-10T06:59:42;1.80;;;1.40;;
15287;SDS011;7745;48.708;9.026;2023-05-10T07:02:10;2.53;;;1.60;;
15287;SDS011;7745;48.708;9.026;2023-05-10T07:04:37;4.73;;;1.50;;
15287;SDS011;7745;48.708;9.026;2023-05-10T07:07:04;2.00;;;1.47;;
15287;SDS011;7745;48.708;9.026;2023-05-10T07:09:42;1.73;;;1.30;;
15287;SDS011;7745;48.708;9.026;2023-05-10T07:12:11;3.50;;;1.20;;
15287;SDS011;7745;48.708;9.026;2023-05-10T07:14:37;2.87;;;1.90;;
15287;SDS011;7745;48.708;9.026;2023-05-10T07:17:04;3.10;;;1.20;;
15287;SDS011;7745;48.708;9.026;2023-05-10T07:19:31;2.43;;;1.10;;
15287;SDS011;7745;48.708;9.026;2023-05-10T07:21:58;4.00;;;0.87;;
15287;SDS011;7745;48.708;9.026;2023-05-10T07:24:25;2.13;;;0.90;;
15287;SDS011;7745;48.708;9.026;2023-05-10T07:26:52;2.73;;;1.17;;
15287;SDS011;7745;48.708;9.026;2023-05-10T07:29:20;1.27;;;1.17;;
15287;SDS011;7745;48.708;9.026;2023-05-10T07:31:46;3.63;;;1.07;;
15287;SDS011;7745;48.708;9.026;2023-05-10T07:34:13;1.43;;;1.10;;
15287;SDS011;7745;48.708;9.026;2023-05-10T07:36:40;5.37;;;1.73;;
15287;SDS011;7745;48.708;9.026;2023-05-10T07:39:07;1.20;;;1.00;;
15287;SDS011;7745;48.708;9.026;2023-05-10T07:41:33;2.87;;;1.10;;
15287;SDS011;7745;48.708;9.026;2023-05-10T07:44:02;1.53;;;0.90;;
15287;SDS011;7745;48.708;9.026;2023-05-10T07:46:31;2.00;;;1.10;;
15287;SDS011;7745;48.708;9.026;2023-05-10T07:48:58;5.50;;;0.80;;
15287;SDS011;7745;48.708;9.026;2023-05-10T07:51:24;2.40;;;0.77;;
15287;SDS011;7745;48.708;9.026;2023-05-10T07:53:53;0.90;;;0.80;;
15287;SDS011;7745;48.708;9.026;2023-05-10T07:56:20;1.77;;;0.80;;
15287;SDS011;7745;48.708;9.026;2023-05-10T07:58:49;1.67;;;0.70;;
15287;SDS011;7745;48.708;9.026;2023-05-10T08:01:16;2.07;;;0.80;;
15287;SDS011;7745;48.708;9.026;2023-05-10T08:03:45;0.70;;;0.70;;
15287;SDS011;7745;48.708;9.026;2023-05-10T08:06:11;4.13;;;0.63;;
15287;SDS011;7745;48.708;9.026;2023-05-10T08:08:39;1.10;;;0.90;;
15287;SDS011;7745;48.708;9.026;2023-05-10T08:11:06;2.53;;;1.00;;
15287;SDS011;7745;48.708;9.026;2023-05-10T08:13:33;2.27;;;0.80;;
15287;SDS011;7745;48.708;9.026;2023-05-10T08:16:00;1.17;;;0.70;;
15287;SDS011;7745;48.708;9.026;2023-05-10T08:18:27;1.53;;;0.70;;
15287;SDS011;7745;48.708;9.026;2023-05-10T08:20:55;1.73;;;0.60;;
15287;SDS011;7745;48.708;9.026;2023-05-10T08:23:22;0.90;;;0.67;;
15287;SDS011;7745;48.708;9.026;2023-05-10T08:25:49;2.03;;;0.67;;
15287;SDS011;7745;48.708;9.026;2023-05-10T08:28:15;1.43;;;0.60;;
15287;SDS011;7745;48.708;9.026;2023-05-10T08:30:42;4.33;;;0.60;;
15287;SDS011;7745;48.708;9.026;2023-05-10T08:33:09;2.00;;;0.70;;
15287;SDS011;7745;48.708;9.026;2023-05-10T08:35:35;1.63;;;0.57;;
15287;SDS011;7745;48.708;9.026;2023-05-10T08:38:04;2.77;;;0.53;;
15287;SDS011;7745;48.708;9.026;2023-05-10T08:40:30;0.80;;;0.67;;
15287;SDS011;7745;48.708;9.026;2023-05-10T08:42:59;1.30;;;0.60;;
15287;SDS011;7745;48.708;9.026;2023-05-10T08:45:32;2.17;;;0.50;;
15287;SDS011;7745;48.708;9.026;2023-05-10T08:48:02;1.07;;;0.40;;
15287;SDS011;7745;48.708;9.026;2023-05-10T08:50:31;3.43;;;0.40;;
15287;SDS011;7745;48.708;9.026;2023-05-10T08:53:00;1.27;;;0.50;;
15287;SDS011;7745;48.708;9.026;2023-05-10T08:55:31;0.97;;;0.47;;
15287;SDS011;7745;48.708;9.026;2023-05-10T08:57:59;0.77;;;0.57;;
15287;SDS011;7745;48.708;9.026;2023-05-10T09:00:26;2.30;;;0.63;;
15287;SDS011;7745;48.708;9.026;2023-05-10T09:02:53;2.67;;;0.50;;
15287;SDS011;7745;48.708;9.026;2023-05-10T09:05:20;1.33;;;0.57;;
15287;SDS011;7745;48.708;9.026;2023-05-10T09:07:46;0.97;;;0.57;;
15287;SDS011;7745;48.708;9.026;2023-05-10T09:10:13;7.47;;;0.97;;
15287;SDS011;7745;48.708;9.026;2023-05-10T09:12:42;2.60;;;0.40;;
15287;SDS011;7745;48.708;9.026;2023-05-10T09:15:10;0.70;;;0.43;;
15287;SDS011;7745;48.708;9.026;2023-05-10T09:17:39;0.43;;;0.30;;
15287;SDS011;7745;48.708;9.026;2023-05-10T09:20:07;2.60;;;0.43;;
15287;SDS011;7745;48.708;9.026;2023-05-10T09:22:34;0.40;;;0.30;;
15287;SDS011;7745;48.708;9.026;2023-05-10T09:25:05;0.93;;;0.30;;
15287;SDS011;7745;48.708;9.026;2023-05-10T09:27:32;0.80;;;0.30;;
15287;SDS011;7745;48.708;9.026;2023-05-10T09:30:01;0.30;;;0.20;;
15287;SDS011;7745;48.708;9.026;2023-05-10T09:32:35;1.13;;;0.57;;
15287;SDS011;7745;48.708;9.026;2023-05-10T09:35:07;1.53;;;0.53;;
15287;SDS011;7745;48.708;9.026;2023-05-10T09:37:35;2.57;;;0.30;;
15287;SDS011;7745;48.708;9.026;2023-05-10T09:40:04;1.33;;;0.40;;
15287;SDS011;7745;48.708;9.026;2023-05-10T09:42:32;2.23;;;0.40;;
15287;SDS011;7745;48.708;9.026;2023-05-10T09:45:01;0.50;;;0.20;;
15287;SDS011;7745;48.708;9.026;2023-05-10T09:47:29;2.00;;;0.53;;
15287;SDS011;7745;48.708;9.026;2023-05-10T09:49:58;1.43;;;0.30;;
15287;SDS011;7745;48.708;9.026;2023-05-10T09:52:28;0.57;;;0.40;;
15287;SDS011;7745;48.708;9.026;2023-05-10T09:57:31;2.40;;;0.50;;
15287;SDS011;7745;48.708;9.026;2023-05-10T09:59:59;1.07;;;0.20;;
15287;SDS011;7745;48.708;9.026;2023-05-10T10:02:29;1.43;;;0.40;;
15287;SDS011;7745;48.708;9.026;2023-05-10T10:04:58;0.20;;;0.20;;
15287;SDS011;7745;48.708;9.026;2023-05-10T10:07:27;0.37;;;0.20;;
15287;SDS011;7745;48.708;9.026;2023-05-10T10:09:54;3.43;;;0.30;;
15287;SDS011;7745;48.708;9.026;2023-05-10T10:12:21;1.80;;;0.40;;
15287;SDS011;7745;48.708;9.026;2023-05-10T10:14:48;1.23;;;0.40;;
15287;SDS011;7745;48.708;9.026;2023-05-10T10:17:17;0.73;;;0.30;;
15287;SDS011;7745;48.708;9.026;2023-05-10T10:19:43;0.60;;;0.40;;
15287;SDS011;7745;48.708;9.026;2023-05-10T10:22:12;1.70;;;0.33;;
15287;SDS011;7745;48.708;9.026;2023-05-10T10:24:39;0.97;;;0.40;;
15287;SDS011;7745;48.708;9.026;2023-05-10T10:27:09;0.83;;;0.37;;
15287;SDS011;7745;48.708;9.026;2023-05-10T10:29:44;1.27;;;0.40;;
15287;SDS011;7745;48.708;9.026;2023-05-10T10:32:21;0.87;;;0.30;;
15287;SDS011;7745;48.708;9.026;2023-05-10T10:34:54;0.60;;;0.30;;
15287;SDS011;7745;48.708;9.026;2023-05-10T10:37:21;0.47;;;0.20;;
15287;SDS011;7745;48.708;9.026;2023-05-10T10:39:48;1.70;;;0.37;;
15287;SDS011;7745;48.708;9.026;2023-05-10T10:42:23;1.17;;;0.40;;
15287;SDS011;7745;48.708;9.026;2023-05-10T10:45:13;1.60;;;0.40;;
15287;SDS011;7745;48.708;9.026;2023-05-10T10:47:41;1.37;;;0.23;;
15287;SDS011;7745;48.708;9.026;2023-05-10T10:50:08;0.57;;;0.30;;
15287;SDS011;7745;48.708;9.026;2023-05-10T10:52:38;0.50;;;0.20;;
15287;SDS011;7745;48.708;9.026;2023-05-10T10:55:06;2.63;;;0.60;;
15287;SDS011;7745;48.708;9.026;2023-05-10T10:57:47;0.93;;;0.37;;
15287;SDS011;7745;48.708;9.026;2023-05-10T11:00:20;2.07;;;0.60;;
15287;SDS011;7745;48.708;9.026;2023-05-10T11:02:50;0.87;;;0.40;;
15287;SDS011;7745;48.708;9.026;2023-05-10T11:05:24;0.33;;;0.30;;
15287;SDS011;7745;48.708;9.026;2023-05-10T11:08:13;0.50;;;0.30;;
15287;SDS011;7745;48.708;9.026;2023-05-10T11:13:37;0.70;;;0.40;;
15287;SDS011;7745;48.708;9.026;2023-05-10T11:16:12;0.30;;;0.30;;
15287;SDS011;7745;48.708;9.026;2023-05-10T11:18:54;1.17;;;0.33;;
15287;SDS011;7745;48.708;9.026;2023-05-10T11:21:24;2.07;;;0.53;;
15287;SDS011;7745;48.708;9.026;2023-05-10T11:23:52;0.60;;;0.40;;
15287;SDS011;7745;48.708;9.026;2023-05-10T11:26:22;1.33;;;0.40;;
15287;SDS011;7745;48.708;9.026;2023-05-10T11:28:51;0.50;;;0.50;;
15287;SDS011;7745;48.708;9.026;2023-05-10T11:31:21;1.63;;;0.90;;
15287;SDS011;7745;48.708;9.026;2023-05-10T11:33:52;3.63;;;0.70;;
15287;SDS011;7745;48.708;9.026;2023-05-10T11:36:21;4.23;;;0.70;;
15287;SDS011;7745;48.708;9.026;2023-05-10T11:38:50;1.27;;;0.50;;
15287;SDS011;7745;48.708;9.026;2023-05-10T11:41:17;0.60;;;0.50;;
15287;SDS011;7745;48.708;9.026;2023-05-10T11:43:48;1.37;;;0.53;;
15287;SDS011;7745;48.708;9.026;2023-05-10T11:46:17;1.27;;;0.30;;
15287;SDS011;7745;48.708;9.026;2023-05-10T11:48:46;1.87;;;0.40;;
15287;SDS011;7745;48.708;9.026;2023-05-10T11:51:19;4.13;;;0.43;;
15287;SDS011;7745;48.708;9.026;2023-05-10T11:53:46;1.70;;;0.60;;
15287;SDS011;7745;48.708;9.026;2023-05-10T11:56:13;1.37;;;0.60;;
15287;SDS011;7745;48.708;9.026;2023-05-10T11:58:40;1.33;;;0.60;;
15287;SDS011;7745;48.708;9.026;2023-05-10T12:01:07;1.50;;;0.60;;
15287;SDS011;7745;48.708;9.026;2023-05-10T12:03:35;1.27;;;0.43;;
15287;SDS011;7745;48.708;9.026;2023-05-10T12:06:03;1.77;;;0.60;;
15287;SDS011;7745;48.708;9.026;2023-05-10T12:08:32;1.50;;;0.80;;
15287;SDS011;7745;48.708;9.026;2023-05-10T12:11:05;1.83;;;0.60;;
15287;SDS011;7745;48.708;9.026;2023-05-10T12:13:37;0.67;;;0.50;;
15287;SDS011;7745;48.708;9.026;2023-05-10T12:16:12;2.83;;;0.60;;
15287;SDS011;7745;48.708;9.026;2023-05-10T12:18:40;2.90;;;0.80;;
15287;SDS011;7745;48.708;9.026;2023-05-10T12:21:07;1.13;;;0.50;;
15287;SDS011;7745;48.708;9.026;2023-05-10T12:23:38;1.50;;;0.60;;
15287;SDS011;7745;48.708;9.026;2023-05-10T12:26:05;3.63;;;0.77;;
15287;SDS011;7745;48.708;9.026;2023-05-10T12:28:34;1.90;;;0.50;;
15287;SDS011;7745;48.708;9.026;2023-05-10T12:31:02;3.30;;;0.63;;
15287;SDS011;7745;48.708;9.026;2023-05-10T12:33:35;3.33;;;0.60;;
15287;SDS011;7745;48.708;9.026;2023-05-10T12:36:04;1.63;;;0.60;;
15287;SDS011;7745;48.708;9.026;2023-05-10T12:38:32;4.00;;;0.90;;
15287;SDS011;7745;48.708;9.026;2023-05-10T12:41:03;2.57;;;0.63;;
15287;SDS011;7745;48.708;9.026;2023-05-10T12:43:32;1.50;;;0.50;;
15287;SDS011;7745;48.708;9.026;2023-05-10T12:46:03;1.23;;;0.67;;
15287;SDS011;7745;48.708;9.026;2023-05-10T12:48:31;2.87;;;0.83;;
15287;SDS011;7745;48.708;9.026;2023-05-10T12:50:58;1.33;;;0.70;;
15287;SDS011;7745;48.708;9.026;2023-05-10T12:53:25;1.93;;;0.80;;
15287;SDS011;7745;48.708;9.026;2023-05-10T12:55:52;2.00;;;0.83;;
15287;SDS011;7745;48.708;9.026;2023-05-10T12:58:28;5.27;;;0.70;;
15287;SDS011;7745;48.708;9.026;2023-05-10T13:01:11;3.77;;;0.87;;
15287;SDS011;7745;48.708;9.026;2023-05-10T13:03:40;2.20;;;0.77;;
15287;SDS011;7745;48.708;9.026;2023-05-10T13:06:08;3.03;;;0.70;;
15287;SDS011;7745;48.708;9.026;2023-05-10T13:08:35;1.77;;;0.70;;
15287;SDS011;7745;48.708;9.026;2023-05-10T13:11:02;0.87;;;0.70;;
15287;SDS011;7745;48.708;9.026;2023-05-10T13:13:32;2.43;;;0.67;;
15287;SDS011;7745;48.708;9.026;2023-05-10T13:15:58;3.27;;;0.87;;
15287;SDS011;7745;48.708;9.026;2023-05-10T13:18:25;3.00;;;0.60;;
15287;SDS011;7745;48.708;9.026;2023-05-10T13:20:53;1.80;;;0.60;;
15287;SDS011;7745;48.708;9.026;2023-05-10T13:23:20;0.47;;;0.47;;
15287;SDS011;7745;48.708;9.026;2023-05-10T13:25:47;2.10;;;0.70;;
15287;SDS011;7745;48.708;9.026;2023-05-10T13:28:14;3.67;;;0.60;;
15287;SDS011;7745;48.708;9.026;2023-05-10T13:30:42;0.97;;;0.50;;
15287;SDS011;7745;48.708;9.026;2023-05-10T13:33:09;1.93;;;0.60;;
15287;SDS011;7745;48.708;9.026;2023-05-10T13:35:36;3.50;;;0.90;;
15287;SDS011;7745;48.708;9.026;2023-05-10T13:38:03;2.43;;;0.80;;
15287;SDS011;7745;48.708;9.026;2023-05-10T13:40:32;1.20;;;0.60;;
15287;SDS011;7745;48.708;9.026;2023-05-10T13:42:59;4.50;;;0.90;;
15287;SDS011;7745;48.708;9.026;2023-05-10T13:45:27;2.83;;;0.80;;
15287;SDS011;7745;48.708;9.026;2023-05-10T13:47:55;0.97;;;0.60;;
15287;SDS011;7745;48.708;9.026;2023-05-10T13:50:22;3.50;;;0.93;;
15287;SDS011;7745;48.708;9.026;2023-05-10T13:52:48;3.13;;;0.70;;
15287;SDS011;7745;48.708;9.026;2023-05-10T13:55:15;2.43;;;0.60;;
15287;SDS011;7745;48.708;9.026;2023-05-10T13:57:42;1.40;;;0.63;;
15287;SDS011;7745;48.708;9.026;2023-05-10T14:00:09;2.40;;;0.60;;
15287;SDS011;7745;48.708;9.026;2023-05-10T14:02:36;2.07;;;0.50;;
15287;SDS011;7745;48.708;9.026;2023-05-10T14:05:05;3.53;;;0.80;;
15287;SDS011;7745;48.708;9.026;2023-05-10T14:07:32;1.43;;;0.80;;
15287;SDS011;7745;48.708;9.026;2023-05-10T14:09:59;2.17;;;0.77;;
15287;SDS011;7745;48.708;9.026;2023-05-10T14:12:26;1.53;;;0.60;;
15287;SDS011;7745;48.708;9.026;2023-05-10T14:14:53;2.60;;;0.50;;
15287;SDS011;7745;48.708;9.026;2023-05-10T14:17:20;1.60;;;0.60;;
15287;SDS011;7745;48.708;9.026;2023-05-10T14:19:47;3.63;;;0.73;;
15287;SDS011;7745;48.708;9.026;2023-05-10T14:22:15;2.67;;;0.50;;
15287;SDS011;7745;48.708;9.026;2023-05-10T14:24:41;3.07;;;0.70;;
15287;SDS011;7745;48.708;9.026;2023-05-10T14:27:11;1.80;;;0.50;;
15287;SDS011;7745;48.708;9.026;2023-05-10T15:49:27;1.47;;;0.60;;
15287;SDS011;7745;48.708;9.026;2023-05-10T15:51:54;1.13;;;0.50;;
15287;SDS011;7745;48.708;9.026;2023-05-10T15:54:21;3.60;;;0.40;;
15287;SDS011;7745;48.708;9.026;2023-05-10T15:56:47;2.00;;;0.67;;
15287;SDS011;7745;48.708;9.026;2023-05-10T15:59:14;0.63;;;0.40;;
15287;SDS011;7745;48.708;9.026;2023-05-10T16:01:41;2.43;;;0.50;;
15287;SDS011;7745;48.708;9.026;2023-05-10T16:04:08;2.97;;;0.60;;
15287;SDS011;7745;48.708;9.026;2023-05-10T16:06:52;0.73;;;0.40;;
15287;SDS011;7745;48.708;9.026;2023-05-10T16:09:20;1.17;;;0.60;;
15287;SDS011;7745;48.708;9.026;2023-05-10T16:11:47;0.93;;;0.50;;
15287;SDS011;7745;48.708;9.026;2023-05-10T16:14:14;0.53;;;0.47;;
15287;SDS011;7745;48.708;9.026;2023-05-10T16:16:41;1.27;;;0.43;;
15287;SDS011;7745;48.708;9.026;2023-05-10T16:19:08;1.63;;;0.60;;
15287;SDS011;7745;48.708;9.026;2023-05-10T16:21:35;1.07;;;0.50;;
15287;SDS011;7745;48.708;9.026;2023-05-10T16:24:03;0.93;;;0.37;;
15287;SDS011;7745;48.708;9.026;2023-05-10T16:33:36;1.10;;;0.70;;
15287;SDS011;7745;48.708;9.026;2023-05-10T16:36:03;2.30;;;0.57;;
15287;SDS011;7745;48.708;9.026;2023-05-10T16:38:30;2.00;;;0.60;;
15287;SDS011;7745;48.708;9.026;2023-05-10T16:40:57;0.40;;;0.40;;